Miami Beach, Florida
Current Conditions -  °F | °C
As of 2:53 AM on Monday 24 Nov 2014 (Local Time) from KMIA Reporting Station
Haze Haze  
Wind Chill: 25°   Ceiling: 2100
Heat Index: 26°   Visibility: 6mi
Dew Point: 24°   Wind: 5mph
Humidity: 94%   Direction: 150°SSE
Pressure: 29.95"   Gusts: NA
Location:  25.81°N, 80.13°W
Report Text: KMIA 240753Z 15004KT 6SM BR FEW013 BKN021 OVC250 25/24 A2995 RMK AO2 SLP141 98222 T02500239
Loading
Personal Weather Stations






























Interactive Weather Map New forecast layout! Learn more

10-Day Weather Forecast

Advertisements
Track Severe Weather on mobile